sensor_id;sensor_type;location;lat;lon;timestamp;temperature;humidity
66670;DHT22;53568;52.164;4.472;2022-08-11T00:01:05;22.46;71.45
66670;DHT22;53568;52.164;4.472;2022-08-11T00:03:33;22.39;71.65
66670;DHT22;53568;52.164;4.472;2022-08-11T00:06:02;22.39;71.65
66670;DHT22;53568;52.164;4.472;2022-08-11T00:08:32;22.38;71.68
66670;DHT22;53568;52.164;4.472;2022-08-11T00:11:03;22.32;71.88
66670;DHT22;53568;52.164;4.472;2022-08-11T00:13:35;22.29;71.86
66670;DHT22;53568;52.164;4.472;2022-08-11T00:16:11;22.31;71.90
66670;DHT22;53568;52.164;4.472;2022-08-11T00:18:39;22.31;71.82
66670;DHT22;53568;52.164;4.472;2022-08-11T00:21:06;22.34;71.69
66670;DHT22;53568;52.164;4.472;2022-08-11T00:23:33;22.25;71.94
66670;DHT22;53568;52.164;4.472;2022-08-11T00:26:00;22.21;72.15
66670;DHT22;53568;52.164;4.472;2022-08-11T00:28:29;22.12;72.34
66670;DHT22;53568;52.164;4.472;2022-08-11T00:30:58;22.09;72.46
66670;DHT22;53568;52.164;4.472;2022-08-11T00:33:41;22.14;72.29
66670;DHT22;53568;52.164;4.472;2022-08-11T00:36:10;22.14;72.18
66670;DHT22;53568;52.164;4.472;2022-08-11T00:38:39;22.09;72.22
66670;DHT22;53568;52.164;4.472;2022-08-11T00:57:53;22.28;70.34
66670;DHT22;53568;52.164;4.472;2022-08-11T01:00:22;22.26;70.30
66670;DHT22;53568;52.164;4.472;2022-08-11T01:05:56;22.21;69.80
66670;DHT22;53568;52.164;4.472;2022-08-11T01:15:18;22.31;69.00
66670;DHT22;53568;52.164;4.472;2022-08-11T01:17:56;22.24;68.55
66670;DHT22;53568;52.164;4.472;2022-08-11T01:29:39;22.28;66.67
66670;DHT22;53568;52.164;4.472;2022-08-11T01:47:25;22.25;66.35
66670;DHT22;53568;52.164;4.472;2022-08-11T02:04:16;22.12;66.31
66670;DHT22;53568;52.164;4.472;2022-08-11T02:19:09;21.95;66.54
66670;DHT22;53568;52.164;4.472;2022-08-11T02:25:07;21.95;66.03
66670;DHT22;53568;52.164;4.472;2022-08-11T02:27:46;21.94;66.07
66670;DHT22;53568;52.164;4.472;2022-08-11T02:30:16;21.94;65.78
66670;DHT22;53568;52.164;4.472;2022-08-11T02:33:19;21.91;65.79
66670;DHT22;53568;52.164;4.472;2022-08-11T02:36:06;21.91;65.85
66670;DHT22;53568;52.164;4.472;2022-08-11T02:39:07;21.92;65.51
66670;DHT22;53568;52.164;4.472;2022-08-11T02:42:04;21.82;65.74
66670;DHT22;53568;52.164;4.472;2022-08-11T02:51:03;21.75;65.98
66670;DHT22;53568;52.164;4.472;2022-08-11T02:53:39;21.73;65.77
66670;DHT22;53568;52.164;4.472;2022-08-11T02:59:10;21.64;65.80
66670;DHT22;53568;52.164;4.472;2022-08-11T03:02:09;21.53;66.26
66670;DHT22;53568;52.164;4.472;2022-08-11T03:04:54;21.51;66.16
66670;DHT22;53568;52.164;4.472;2022-08-11T03:10:20;21.51;66.21
66670;DHT22;53568;52.164;4.472;2022-08-11T03:19:17;21.37;66.21
66670;DHT22;53568;52.164;4.472;2022-08-11T03:21:58;21.44;66.14
66670;DHT22;53568;52.164;4.472;2022-08-11T03:24:55;21.40;66.21
66670;DHT22;53568;52.164;4.472;2022-08-11T03:30:45;21.40;65.97
66670;DHT22;53568;52.164;4.472;2022-08-11T03:41:35;21.37;65.54
66670;DHT22;53568;52.164;4.472;2022-08-11T03:45:18;21.34;65.77
66670;DHT22;53568;52.164;4.472;2022-08-11T03:50:02;21.39;65.49
66670;DHT22;53568;52.164;4.472;2022-08-11T03:52:51;21.43;65.50
66670;DHT22;53568;52.164;4.472;2022-08-11T03:58:31;21.37;65.52
66670;DHT22;53568;52.164;4.472;2022-08-11T04:24:23;21.10;66.02
66670;DHT22;53568;52.164;4.472;2022-08-11T04:30:39;21.11;65.92
66670;DHT22;53568;52.164;4.472;2022-08-11T04:42:55;21.17;65.84
66670;DHT22;53568;52.164;4.472;2022-08-11T04:58:21;21.17;66.61
66670;DHT22;53568;52.164;4.472;2022-08-11T05:01:31;21.16;66.64
66670;DHT22;53568;52.164;4.472;2022-08-11T05:13:04;21.30;65.71
66670;DHT22;53568;52.164;4.472;2022-08-11T05:15:52;21.34;65.67
66670;DHT22;53568;52.164;4.472;2022-08-11T05:18:57;21.36;66.02
66670;DHT22;53568;52.164;4.472;2022-08-11T05:21:52;21.54;65.09
66670;DHT22;53568;52.164;4.472;2022-08-11T05:24:48;21.57;64.91
66670;DHT22;53568;52.164;4.472;2022-08-11T05:27:54;21.75;64.18
66670;DHT22;53568;52.164;4.472;2022-08-11T05:30:43;21.81;63.75
66670;DHT22;53568;52.164;4.472;2022-08-11T05:33:35;21.82;63.75
66670;DHT22;53568;52.164;4.472;2022-08-11T05:36:59;21.81;63.65
66670;DHT22;53568;52.164;4.472;2022-08-11T05:39:32;21.91;63.33
66670;DHT22;53568;52.164;4.472;2022-08-11T05:42:21;22.05;62.67
66670;DHT22;53568;52.164;4.472;2022-08-11T05:45:15;22.06;62.64
66670;DHT22;53568;52.164;4.472;2022-08-11T05:48:19;22.21;62.00
66670;DHT22;53568;52.164;4.472;2022-08-11T06:01:13;22.32;61.07
66670;DHT22;53568;52.164;4.472;2022-08-11T06:03:47;22.35;60.60
66670;DHT22;53568;52.164;4.472;2022-08-11T06:06:56;22.42;60.45
66670;DHT22;53568;52.164;4.472;2022-08-11T06:41:02;22.82;59.22
66670;DHT22;53568;52.164;4.472;2022-08-11T07:14:07;23.49;58.88
66670;DHT22;53568;52.164;4.472;2022-08-11T07:37:03;24.34;52.41
66670;DHT22;53568;52.164;4.472;2022-08-11T07:43:13;24.45;51.72
66670;DHT22;53568;52.164;4.472;2022-08-11T07:45:49;24.56;51.79
66670;DHT22;53568;52.164;4.472;2022-08-11T07:48:43;24.59;52.00
66670;DHT22;53568;52.164;4.472;2022-08-11T07:51:41;24.76;50.74
66670;DHT22;53568;52.164;4.472;2022-08-11T07:58:05;24.85;51.22
66670;DHT22;53568;52.164;4.472;2022-08-11T08:00:54;24.92;51.32
66670;DHT22;53568;52.164;4.472;2022-08-11T08:03:40;25.00;51.17
66670;DHT22;53568;52.164;4.472;2022-08-11T08:06:44;25.06;50.57
66670;DHT22;53568;52.164;4.472;2022-08-11T08:09:40;25.16;50.03
66670;DHT22;53568;52.164;4.472;2022-08-11T08:12:28;25.18;50.23
66670;DHT22;53568;52.164;4.472;2022-08-11T08:15:15;25.23;50.13
66670;DHT22;53568;52.164;4.472;2022-08-11T08:18:02;25.33;49.95
66670;DHT22;53568;52.164;4.472;2022-08-11T08:20:47;25.49;50.54
66670;DHT22;53568;52.164;4.472;2022-08-11T08:23:18;25.56;50.36
66670;DHT22;53568;52.164;4.472;2022-08-11T08:26:05;25.75;49.71
66670;DHT22;53568;52.164;4.472;2022-08-11T08:28:56;25.87;49.04
66670;DHT22;53568;52.164;4.472;2022-08-11T08:31:45;25.94;49.03
66670;DHT22;53568;52.164;4.472;2022-08-11T08:34:14;25.95;48.99
66670;DHT22;53568;52.164;4.472;2022-08-11T08:36:47;26.02;48.31
66670;DHT22;53568;52.164;4.472;2022-08-11T08:39:14;26.08;48.24
66670;DHT22;53568;52.164;4.472;2022-08-11T08:41:48;26.18;48.73
66670;DHT22;53568;52.164;4.472;2022-08-11T08:44:18;26.08;48.24
66670;DHT22;53568;52.164;4.472;2022-08-11T08:46:50;26.18;47.79
66670;DHT22;53568;52.164;4.472;2022-08-11T08:49:24;26.24;47.61
66670;DHT22;53568;52.164;4.472;2022-08-11T08:51:55;26.31;47.42
66670;DHT22;53568;52.164;4.472;2022-08-11T08:54:35;26.31;46.85
66670;DHT22;53568;52.164;4.472;2022-08-11T08:57:08;26.25;46.90
66670;DHT22;53568;52.164;4.472;2022-08-11T08:59:40;26.35;47.54
66670;DHT22;53568;52.164;4.472;2022-08-11T09:02:07;26.48;46.41
66670;DHT22;53568;52.164;4.472;2022-08-11T09:04:39;26.53;45.85
66670;DHT22;53568;52.164;4.472;2022-08-11T09:07:16;26.63;45.28
66670;DHT22;53568;52.164;4.472;2022-08-11T09:09:53;26.68;44.35
66670;DHT22;53568;52.164;4.472;2022-08-11T09:12:25;26.81;44.09
66670;DHT22;53568;52.164;4.472;2022-08-11T09:14:56;26.89;43.27
66670;DHT22;53568;52.164;4.472;2022-08-11T09:20:19;26.95;42.89
66670;DHT22;53568;52.164;4.472;2022-08-11T09:22:47;26.98;43.32
66670;DHT22;53568;52.164;4.472;2022-08-11T09:25:32;27.00;42.97
66670;DHT22;53568;52.164;4.472;2022-08-11T09:28:22;27.02;41.97
66670;DHT22;53568;52.164;4.472;2022-08-11T09:30:58;27.07;43.11
66670;DHT22;53568;52.164;4.472;2022-08-11T09:33:36;27.12;42.00
66670;DHT22;53568;52.164;4.472;2022-08-11T09:36:08;27.07;40.55
66670;DHT22;53568;52.164;4.472;2022-08-11T09:39:07;27.12;42.06
66670;DHT22;53568;52.164;4.472;2022-08-11T09:41:54;27.35;41.54
66670;DHT22;53568;52.164;4.472;2022-08-11T09:44:26;27.43;40.18
66670;DHT22;53568;52.164;4.472;2022-08-11T09:47:23;27.43;41.32
66670;DHT22;53568;52.164;4.472;2022-08-11T09:50:03;27.57;41.80
66670;DHT22;53568;52.164;4.472;2022-08-11T09:52:38;27.79;39.70
66670;DHT22;53568;52.164;4.472;2022-08-11T09:55:08;27.87;38.90
66670;DHT22;53568;52.164;4.472;2022-08-11T09:57:49;27.94;39.16
66670;DHT22;53568;52.164;4.472;2022-08-11T10:00:35;28.00;39.32
66670;DHT22;53568;52.164;4.472;2022-08-11T10:03:21;27.93;38.94
66670;DHT22;53568;52.164;4.472;2022-08-11T10:09:38;28.10;38.51
66670;DHT22;53568;52.164;4.472;2022-08-11T10:12:45;28.10;36.75
66670;DHT22;53568;52.164;4.472;2022-08-11T10:15:39;28.15;38.58
66670;DHT22;53568;52.164;4.472;2022-08-11T10:20:58;28.37;38.75
66670;DHT22;53568;52.164;4.472;2022-08-11T10:23:34;28.56;38.30
66670;DHT22;53568;52.164;4.472;2022-08-11T10:36:57;28.87;33.64
66670;DHT22;53568;52.164;4.472;2022-08-11T10:39:55;29.00;33.06
66670;DHT22;53568;52.164;4.472;2022-08-11T10:45:47;29.15;32.73
66670;DHT22;53568;52.164;4.472;2022-08-11T10:48:38;29.18;32.22
66670;DHT22;53568;52.164;4.472;2022-08-11T10:51:28;29.36;32.98
66670;DHT22;53568;52.164;4.472;2022-08-11T10:54:31;29.27;30.95
66670;DHT22;53568;52.164;4.472;2022-08-11T10:57:27;29.34;32.77
66670;DHT22;53568;52.164;4.472;2022-08-11T11:00:15;29.27;31.46
66670;DHT22;53568;52.164;4.472;2022-08-11T11:26:16;30.03;31.56
66670;DHT22;53568;52.164;4.472;2022-08-11T11:29:38;30.07;31.19
66670;DHT22;53568;52.164;4.472;2022-08-11T11:32:36;29.98;31.51
66670;DHT22;53568;52.164;4.472;2022-08-11T11:39:14;29.86;31.81
66670;DHT22;53568;52.164;4.472;2022-08-11T11:42:01;30.03;32.10
66670;DHT22;53568;52.164;4.472;2022-08-11T11:44:45;30.23;31.08
66670;DHT22;53568;52.164;4.472;2022-08-11T11:47:34;30.14;31.29
66670;DHT22;53568;52.164;4.472;2022-08-11T11:50:11;30.17;31.68
66670;DHT22;53568;52.164;4.472;2022-08-11T11:52:57;30.21;32.14
66670;DHT22;53568;52.164;4.472;2022-08-11T11:55:28;30.34;31.85
66670;DHT22;53568;52.164;4.472;2022-08-11T11:58:03;30.14;31.69
66670;DHT22;53568;52.164;4.472;2022-08-11T12:01:15;30.13;30.19
66670;DHT22;53568;52.164;4.472;2022-08-11T12:04:05;30.06;30.76
66670;DHT22;53568;52.164;4.472;2022-08-11T12:06:53;30.25;30.83
66670;DHT22;53568;52.164;4.472;2022-08-11T12:09:49;30.30;31.32
66670;DHT22;53568;52.164;4.472;2022-08-11T12:12:32;30.25;31.65
66670;DHT22;53568;52.164;4.472;2022-08-11T12:15:19;30.40;32.25
66670;DHT22;53568;52.164;4.472;2022-08-11T12:17:52;30.49;31.90
66670;DHT22;53568;52.164;4.472;2022-08-11T12:20:30;30.58;31.64
66670;DHT22;53568;52.164;4.472;2022-08-11T12:23:06;30.65;32.40
66670;DHT22;53568;52.164;4.472;2022-08-11T12:29:06;30.82;31.26
66670;DHT22;53568;52.164;4.472;2022-08-11T12:31:47;30.91;30.84
66670;DHT22;53568;52.164;4.472;2022-08-11T12:34:27;30.95;30.93
66670;DHT22;53568;52.164;4.472;2022-08-11T12:37:04;31.03;31.34
66670;DHT22;53568;52.164;4.472;2022-08-11T12:40:51;30.99;31.37
66670;DHT22;53568;52.164;4.472;2022-08-11T12:46:22;30.72;31.55
66670;DHT22;53568;52.164;4.472;2022-08-11T12:49:52;30.62;32.13
66670;DHT22;53568;52.164;4.472;2022-08-11T12:56:03;30.81;31.94
66670;DHT22;53568;52.164;4.472;2022-08-11T13:08:50;31.18;31.31
66670;DHT22;53568;52.164;4.472;2022-08-11T13:11:35;31.21;31.28
66670;DHT22;53568;52.164;4.472;2022-08-11T13:14:24;31.25;30.42
66670;DHT22;53568;52.164;4.472;2022-08-11T13:17:15;31.11;30.98
66670;DHT22;53568;52.164;4.472;2022-08-11T13:19:57;31.14;31.61
66670;DHT22;53568;52.164;4.472;2022-08-11T13:22:25;31.18;31.14
66670;DHT22;53568;52.164;4.472;2022-08-11T13:25:03;30.85;31.65
66670;DHT22;53568;52.164;4.472;2022-08-11T13:27:43;30.45;32.44
66670;DHT22;53568;52.164;4.472;2022-08-11T13:30:17;30.64;31.71
66670;DHT22;53568;52.164;4.472;2022-08-11T13:33:04;30.55;32.26
66670;DHT22;53568;52.164;4.472;2022-08-11T13:35:40;30.71;32.31
66670;DHT22;53568;52.164;4.472;2022-08-11T13:38:34;30.75;31.83
66670;DHT22;53568;52.164;4.472;2022-08-11T13:41:03;30.91;31.53
66670;DHT22;53568;52.164;4.472;2022-08-11T13:43:53;31.06;31.45
66670;DHT22;53568;52.164;4.472;2022-08-11T13:46:26;31.21;31.07
66670;DHT22;53568;52.164;4.472;2022-08-11T13:49:29;31.38;30.97
66670;DHT22;53568;52.164;4.472;2022-08-11T13:52:25;31.28;31.24
66670;DHT22;53568;52.164;4.472;2022-08-11T14:02:11;30.89;31.75
66670;DHT22;53568;52.164;4.472;2022-08-11T14:08:29;31.15;30.79
66670;DHT22;53568;52.164;4.472;2022-08-11T14:11:15;31.06;30.77
66670;DHT22;53568;52.164;4.472;2022-08-11T14:14:22;31.16;30.74
66670;DHT22;53568;52.164;4.472;2022-08-11T14:17:07;31.32;30.11
66670;DHT22;53568;52.164;4.472;2022-08-11T14:19:43;31.50;30.03
66670;DHT22;53568;52.164;4.472;2022-08-11T14:22:18;31.32;29.62
66670;DHT22;53568;52.164;4.472;2022-08-11T14:24:46;31.12;29.80
66670;DHT22;53568;52.164;4.472;2022-08-11T14:27:19;31.08;29.75
66670;DHT22;53568;52.164;4.472;2022-08-11T14:30:18;31.09;29.92
66670;DHT22;53568;52.164;4.472;2022-08-11T14:33:08;31.42;29.66
66670;DHT22;53568;52.164;4.472;2022-08-11T14:35:36;31.32;29.28
66670;DHT22;53568;52.164;4.472;2022-08-11T14:38:06;31.18;29.61
66670;DHT22;53568;52.164;4.472;2022-08-11T14:41:07;31.21;29.14
66670;DHT22;53568;52.164;4.472;2022-08-11T14:44:06;31.19;29.22
66670;DHT22;53568;52.164;4.472;2022-08-11T14:47:00;31.25;29.53
66670;DHT22;53568;52.164;4.472;2022-08-11T14:49:33;31.39;30.08
66670;DHT22;53568;52.164;4.472;2022-08-11T14:52:15;31.49;29.19
66670;DHT22;53568;52.164;4.472;2022-08-11T14:54:47;31.42;29.57
66670;DHT22;53568;52.164;4.472;2022-08-11T14:57:47;31.56;29.10
66670;DHT22;53568;52.164;4.472;2022-08-11T15:00:31;31.49;28.83
66670;DHT22;53568;52.164;4.472;2022-08-11T15:03:05;31.56;28.84
66670;DHT22;53568;52.164;4.472;2022-08-11T15:05:49;31.63;28.49
66670;DHT22;53568;52.164;4.472;2022-08-11T15:08:35;31.21;29.49
66670;DHT22;53568;52.164;4.472;2022-08-11T15:11:22;31.45;29.51
66670;DHT22;53568;52.164;4.472;2022-08-11T15:14:28;31.43;28.90
66670;DHT22;53568;52.164;4.472;2022-08-11T15:17:21;31.25;28.61
66670;DHT22;53568;52.164;4.472;2022-08-11T15:19:53;31.25;28.86
66670;DHT22;53568;52.164;4.472;2022-08-11T15:22:46;31.35;29.04
66670;DHT22;53568;52.164;4.472;2022-08-11T15:25:33;31.26;30.01
66670;DHT22;53568;52.164;4.472;2022-08-11T15:28:23;31.25;29.85
66670;DHT22;53568;52.164;4.472;2022-08-11T15:31:14;31.45;29.94
66670;DHT22;53568;52.164;4.472;2022-08-11T15:34:04;31.40;29.96
66670;DHT22;53568;52.164;4.472;2022-08-11T15:37:14;31.15;30.42
66670;DHT22;53568;52.164;4.472;2022-08-11T15:40:29;31.09;30.99
66670;DHT22;53568;52.164;4.472;2022-08-11T15:43:47;31.23;31.20
66670;DHT22;53568;52.164;4.472;2022-08-11T15:46:43;31.43;30.37
66670;DHT22;53568;52.164;4.472;2022-08-11T15:49:22;31.32;30.11
66670;DHT22;53568;52.164;4.472;2022-08-11T15:52:09;31.29;30.65
66670;DHT22;53568;52.164;4.472;2022-08-11T15:54:40;31.28;30.47
66670;DHT22;53568;52.164;4.472;2022-08-11T15:57:14;31.22;31.14
66670;DHT22;53568;52.164;4.472;2022-08-11T16:00:07;31.14;31.36
66670;DHT22;53568;52.164;4.472;2022-08-11T16:02:53;31.08;31.06
66670;DHT22;53568;52.164;4.472;2022-08-11T16:05:46;30.98;31.05
66670;DHT22;53568;52.164;4.472;2022-08-11T16:08:20;30.84;31.12
66670;DHT22;53568;52.164;4.472;2022-08-11T16:11:03;30.85;31.01
66670;DHT22;53568;52.164;4.472;2022-08-11T16:13:36;30.88;31.59
66670;DHT22;53568;52.164;4.472;2022-08-11T16:16:28;30.76;31.60
66670;DHT22;53568;52.164;4.472;2022-08-11T16:18:58;30.92;31.54
66670;DHT22;53568;52.164;4.472;2022-08-11T16:21:35;30.98;30.88
66670;DHT22;53568;52.164;4.472;2022-08-11T16:24:10;30.78;31.32
66670;DHT22;53568;52.164;4.472;2022-08-11T16:26:46;30.92;31.32
66670;DHT22;53568;52.164;4.472;2022-08-11T16:29:28;30.96;31.15
66670;DHT22;53568;52.164;4.472;2022-08-11T16:35:08;30.76;31.30
66670;DHT22;53568;52.164;4.472;2022-08-11T16:37:54;30.92;31.03
66670;DHT22;53568;52.164;4.472;2022-08-11T16:40:54;30.99;31.11
66670;DHT22;53568;52.164;4.472;2022-08-11T16:43:29;30.92;31.84
66670;DHT22;53568;52.164;4.472;2022-08-11T16:46:25;30.68;32.37
66670;DHT22;53568;52.164;4.472;2022-08-11T16:52:29;30.75;31.26
66670;DHT22;53568;52.164;4.472;2022-08-11T16:55:03;30.72;31.17
66670;DHT22;53568;52.164;4.472;2022-08-11T16:57:32;30.68;31.55
66670;DHT22;53568;52.164;4.472;2022-08-11T17:00:17;30.72;31.13
66670;DHT22;53568;52.164;4.472;2022-08-11T17:03:04;30.65;31.00
66670;DHT22;53568;52.164;4.472;2022-08-11T17:06:11;30.72;31.03
66670;DHT22;53568;52.164;4.472;2022-08-11T17:09:09;30.72;30.94
66670;DHT22;53568;52.164;4.472;2022-08-11T17:12:12;30.47;31.49
66670;DHT22;53568;52.164;4.472;2022-08-11T17:15:11;30.48;31.34
66670;DHT22;53568;52.164;4.472;2022-08-11T17:18:13;30.45;31.59
66670;DHT22;53568;52.164;4.472;2022-08-11T17:21:03;30.47;31.78
66670;DHT22;53568;52.164;4.472;2022-08-11T17:23:46;30.54;31.95
66670;DHT22;53568;52.164;4.472;2022-08-11T17:26:41;30.47;32.44
66670;DHT22;53568;52.164;4.472;2022-08-11T17:29:40;30.47;32.73
66670;DHT22;53568;52.164;4.472;2022-08-11T17:35:21;30.44;32.34
66670;DHT22;53568;52.164;4.472;2022-08-11T17:38:33;30.30;32.94
66670;DHT22;53568;52.164;4.472;2022-08-11T17:41:06;30.21;33.46
66670;DHT22;53568;52.164;4.472;2022-08-11T17:43:59;30.21;34.10
66670;DHT22;53568;52.164;4.472;2022-08-11T17:46:52;30.23;34.42
66670;DHT22;53568;52.164;4.472;2022-08-11T17:49:56;30.08;34.60
66670;DHT22;53568;52.164;4.472;2022-08-11T17:53:01;30.10;34.85
66670;DHT22;53568;52.164;4.472;2022-08-11T17:59:06;29.90;35.59
66670;DHT22;53568;52.164;4.472;2022-08-11T18:01:53;29.73;35.70
66670;DHT22;53568;52.164;4.472;2022-08-11T18:04:24;29.78;35.60
66670;DHT22;53568;52.164;4.472;2022-08-11T18:06:55;29.86;35.41
66670;DHT22;53568;52.164;4.472;2022-08-11T18:09:35;29.90;35.40
66670;DHT22;53568;52.164;4.472;2022-08-11T18:12:19;29.81;35.27
66670;DHT22;53568;52.164;4.472;2022-08-11T18:15:07;29.73;35.02
66670;DHT22;53568;52.164;4.472;2022-08-11T18:17:51;29.64;35.33
66670;DHT22;53568;52.164;4.472;2022-08-11T18:20:40;29.63;35.26
66670;DHT22;53568;52.164;4.472;2022-08-11T18:23:41;29.53;35.55
66670;DHT22;53568;52.164;4.472;2022-08-11T18:26:35;29.50;35.55
66670;DHT22;53568;52.164;4.472;2022-08-11T18:29:22;29.53;35.90
66670;DHT22;53568;52.164;4.472;2022-08-11T18:32:26;29.53;36.17
66670;DHT22;53568;52.164;4.472;2022-08-11T18:35:13;29.52;36.33
66670;DHT22;53568;52.164;4.472;2022-08-11T18:38:09;29.37;36.59
66670;DHT22;53568;52.164;4.472;2022-08-11T18:41:01;29.19;37.30
66670;DHT22;53568;52.164;4.472;2022-08-11T18:43:51;29.20;37.37
66670;DHT22;53568;52.164;4.472;2022-08-11T18:46:49;29.06;37.86
66670;DHT22;53568;52.164;4.472;2022-08-11T18:49:38;28.98;38.22
66670;DHT22;53568;52.164;4.472;2022-08-11T18:52:27;28.94;38.99
66670;DHT22;53568;52.164;4.472;2022-08-11T18:55:16;28.75;39.93
66670;DHT22;53568;52.164;4.472;2022-08-11T18:58:06;28.64;41.55
66670;DHT22;53568;52.164;4.472;2022-08-11T19:00:56;28.40;43.16
66670;DHT22;53568;52.164;4.472;2022-08-11T19:03:46;28.34;44.07
66670;DHT22;53568;52.164;4.472;2022-08-11T19:10:03;28.37;44.95
66670;DHT22;53568;52.164;4.472;2022-08-11T19:16:33;27.91;46.75
66670;DHT22;53568;52.164;4.472;2022-08-11T19:22:42;27.94;47.03
66670;DHT22;53568;52.164;4.472;2022-08-11T19:25:30;27.94;47.23
66670;DHT22;53568;52.164;4.472;2022-08-11T19:31:48;27.81;47.67
66670;DHT22;53568;52.164;4.472;2022-08-11T19:34:37;27.86;47.65
66670;DHT22;53568;52.164;4.472;2022-08-11T19:40:53;27.70;48.38
66670;DHT22;53568;52.164;4.472;2022-08-11T19:43:45;27.70;48.57
66670;DHT22;53568;52.164;4.472;2022-08-11T19:49:58;27.60;48.93
66670;DHT22;53568;52.164;4.472;2022-08-11T19:52:51;27.50;49.12
66670;DHT22;53568;52.164;4.472;2022-08-11T19:58:52;27.46;49.29
66670;DHT22;53568;52.164;4.472;2022-08-11T20:01:46;27.35;49.74
66670;DHT22;53568;52.164;4.472;2022-08-11T20:04:55;27.22;49.75
66670;DHT22;53568;52.164;4.472;2022-08-11T20:08:03;27.13;50.05
66670;DHT22;53568;52.164;4.472;2022-08-11T20:14:15;27.20;49.70
66670;DHT22;53568;52.164;4.472;2022-08-11T20:17:16;27.09;49.88
66670;DHT22;53568;52.164;4.472;2022-08-11T20:23:38;26.98;49.93
66670;DHT22;53568;52.164;4.472;2022-08-11T20:29:48;26.95;49.71
66670;DHT22;53568;52.164;4.472;2022-08-11T20:32:41;26.76;50.20
66670;DHT22;53568;52.164;4.472;2022-08-11T20:35:30;26.68;50.52
66670;DHT22;53568;52.164;4.472;2022-08-11T20:38:20;26.55;51.22
66670;DHT22;53568;52.164;4.472;2022-08-11T20:47:48;26.63;51.16
66670;DHT22;53568;52.164;4.472;2022-08-11T20:50:42;26.51;51.48
66670;DHT22;53568;52.164;4.472;2022-08-11T20:53:57;26.32;52.07
66670;DHT22;53568;52.164;4.472;2022-08-11T20:57:05;26.29;52.19
66670;DHT22;53568;52.164;4.472;2022-08-11T20:59:55;26.11;52.66
66670;DHT22;53568;52.164;4.472;2022-08-11T21:02:45;26.09;52.72
66670;DHT22;53568;52.164;4.472;2022-08-11T21:09:05;25.98;53.08
66670;DHT22;53568;52.164;4.472;2022-08-11T21:12:08;25.98;53.02
66670;DHT22;53568;52.164;4.472;2022-08-11T21:15:15;25.98;53.03
66670;DHT22;53568;52.164;4.472;2022-08-11T21:21:13;26.04;52.60
66670;DHT22;53568;52.164;4.472;2022-08-11T21:24:15;25.87;53.04
66670;DHT22;53568;52.164;4.472;2022-08-11T21:27:07;25.94;52.72
66670;DHT22;53568;52.164;4.472;2022-08-11T21:30:05;25.84;52.94
66670;DHT22;53568;52.164;4.472;2022-08-11T21:32:52;25.90;52.78
66670;DHT22;53568;52.164;4.472;2022-08-11T21:35:37;25.93;52.47
66670;DHT22;53568;52.164;4.472;2022-08-11T21:38:23;25.88;52.58
66670;DHT22;53568;52.164;4.472;2022-08-11T21:41:09;25.84;52.14
66670;DHT22;53568;52.164;4.472;2022-08-11T21:43:56;25.78;52.49
66670;DHT22;53568;52.164;4.472;2022-08-11T21:46:43;25.67;52.68
66670;DHT22;53568;52.164;4.472;2022-08-11T21:49:30;25.74;52.64
66670;DHT22;53568;52.164;4.472;2022-08-11T21:52:15;25.66;53.20
66670;DHT22;53568;52.164;4.472;2022-08-11T21:55:00;25.66;53.32
66670;DHT22;53568;52.164;4.472;2022-08-11T21:57:46;25.57;53.54
66670;DHT22;53568;52.164;4.472;2022-08-11T22:00:32;25.60;53.25
66670;DHT22;53568;52.164;4.472;2022-08-11T22:03:17;25.60;52.99
66670;DHT22;53568;52.164;4.472;2022-08-11T22:06:02;25.54;53.20
66670;DHT22;53568;52.164;4.472;2022-08-11T22:08:47;25.41;53.68
66670;DHT22;53568;52.164;4.472;2022-08-11T22:11:31;25.33;54.02
66670;DHT22;53568;52.164;4.472;2022-08-11T22:14:15;25.46;53.97
66670;DHT22;53568;52.164;4.472;2022-08-11T22:16:59;25.46;53.89
66670;DHT22;53568;52.164;4.472;2022-08-11T22:19:44;25.41;54.05
66670;DHT22;53568;52.164;4.472;2022-08-11T22:22:30;25.40;54.07
66670;DHT22;53568;52.164;4.472;2022-08-11T22:25:17;25.44;54.14
66670;DHT22;53568;52.164;4.472;2022-08-11T22:28:02;25.37;54.19
66670;DHT22;53568;52.164;4.472;2022-08-11T22:30:46;25.26;54.59
66670;DHT22;53568;52.164;4.472;2022-08-11T22:33:31;25.26;54.67
66670;DHT22;53568;52.164;4.472;2022-08-11T22:36:17;25.19;54.79
66670;DHT22;53568;52.164;4.472;2022-08-11T22:39:05;25.13;55.27
66670;DHT22;53568;52.164;4.472;2022-08-11T22:41:51;25.29;54.87
66670;DHT22;53568;52.164;4.472;2022-08-11T22:44:35;25.29;54.85
66670;DHT22;53568;52.164;4.472;2022-08-11T22:47:22;25.29;55.00
66670;DHT22;53568;52.164;4.472;2022-08-11T22:50:08;25.19;55.35
66670;DHT22;53568;52.164;4.472;2022-08-11T22:52:53;25.05;55.77
66670;DHT22;53568;52.164;4.472;2022-08-11T22:55:39;24.90;56.44
66670;DHT22;53568;52.164;4.472;2022-08-11T22:58:25;24.95;56.39
66670;DHT22;53568;52.164;4.472;2022-08-11T23:01:13;24.96;56.45
66670;DHT22;53568;52.164;4.472;2022-08-11T23:04:00;24.89;56.75
66670;DHT22;53568;52.164;4.472;2022-08-11T23:06:46;24.85;56.88
66670;DHT22;53568;52.164;4.472;2022-08-11T23:09:32;24.79;57.02
66670;DHT22;53568;52.164;4.472;2022-08-11T23:12:17;24.76;57.17
66670;DHT22;53568;52.164;4.472;2022-08-11T23:15:02;24.68;57.50
66670;DHT22;53568;52.164;4.472;2022-08-11T23:17:46;24.68;57.37
66670;DHT22;53568;52.164;4.472;2022-08-11T23:20:30;24.65;57.45
66670;DHT22;53568;52.164;4.472;2022-08-11T23:23:16;24.56;57.61
66670;DHT22;53568;52.164;4.472;2022-08-11T23:26:02;24.54;57.63
66670;DHT22;53568;52.164;4.472;2022-08-11T23:28:47;24.51;57.71
66670;DHT22;53568;52.164;4.472;2022-08-11T23:31:33;24.49;57.69
66670;DHT22;53568;52.164;4.472;2022-08-11T23:34:30;24.47;57.99
66670;DHT22;53568;52.164;4.472;2022-08-11T23:37:16;24.48;58.05
66670;DHT22;53568;52.164;4.472;2022-08-11T23:40:00;24.52;57.77
66670;DHT22;53568;52.164;4.472;2022-08-11T23:42:44;24.48;57.82
66670;DHT22;53568;52.164;4.472;2022-08-11T23:45:28;24.47;57.53
66670;DHT22;53568;52.164;4.472;2022-08-11T23:48:14;24.44;57.66
66670;DHT22;53568;52.164;4.472;2022-08-11T23:50:59;24.38;57.67
66670;DHT22;53568;52.164;4.472;2022-08-11T23:53:44;24.39;57.26
66670;DHT22;53568;52.164;4.472;2022-08-11T23:56:30;24.39;57.10
66670;DHT22;53568;52.164;4.472;2022-08-11T23:59:15;24.36;57.06
